Time;durP1;ratioP1;P1;durP2;ratioP2;P2;SDS_P1;SDS_P2;PMS_P1;PMS_P2;Temp;Humidity;BMP_temperature;BMP_pressure;BME280_temperature;BME280_humidity;BME280_pressure;Samples;Min_cycle;Max_cycle;Signal;HPM_P1;HPM_P2
2022/08/25 00:01:23;;;;;;;12.40;10.67;;;;;;;16.34;100.00;97297.28;4976688;28;20306;-61
2022/08/25 00:03:55;;;;;;;12.77;11.73;;;;;;;16.37;100.00;97293.38;5024441;28;20441;-64
2022/08/25 00:06:25;;;;;;;12.83;11.70;;;;;;;16.40;100.00;97293.75;5029649;28;20223;-62
2022/08/25 00:08:58;;;;;;;13.03;11.83;;;;;;;16.45;100.00;97295.78;5027515;28;20430;-64
2022/08/25 00:11:30;;;;;;;12.50;11.50;;;;;;;16.38;100.00;97301.16;5020422;28;20269;-63
2022/08/25 00:14:00;;;;;;;12.30;11.20;;;;;;;16.30;100.00;97288.09;5022597;28;20316;-64
2022/08/25 00:16:30;;;;;;;12.60;11.47;;;;;;;16.25;100.00;97293.25;4979588;28;20285;-62
2022/08/25 00:19:00;;;;;;;13.33;12.23;;;;;;;16.33;100.00;97299.16;4968244;28;20235;-62
2022/08/25 00:21:30;;;;;;;12.43;11.40;;;;;;;16.35;100.00;97294.41;5019380;28;20200;-65
2022/08/25 00:24:01;;;;;;;12.10;11.03;;;;;;;16.24;100.00;97297.78;5022850;28;20261;-62
2022/08/25 00:26:29;;;;;;;12.57;11.57;;;;;;;16.19;100.00;97298.44;5020018;28;21004;-64
2022/08/25 00:28:57;;;;;;;12.30;11.37;;;;;;;16.19;100.00;97287.75;5028173;28;20258;-61
2022/08/25 00:31:29;;;;;;;12.13;11.13;;;;;;;16.30;100.00;97290.75;5023261;28;20206;-64
2022/08/25 00:34:07;;;;;;;13.00;11.80;;;;;;;16.31;100.00;97295.91;4976100;28;20215;-60
2022/08/25 00:36:35;;;;;;;13.20;12.00;;;;;;;16.22;100.00;97291.84;5021816;28;20254;-61
2022/08/25 00:39:05;;;;;;;12.67;11.63;;;;;;;16.25;100.00;97282.56;5024022;28;20230;-63
2022/08/25 00:41:34;;;;;;;12.47;11.47;;;;;;;16.23;100.00;97279.31;5025407;28;20571;-63
2022/08/25 00:44:04;;;;;;;12.77;11.83;;;;;;;16.19;100.00;97279.75;5017669;28;20207;-61
2022/08/25 00:46:34;;;;;;;12.77;11.67;;;;;;;16.19;100.00;97281.56;5025650;28;20276;-64
2022/08/25 00:49:07;;;;;;;13.20;12.03;;;;;;;16.06;100.00;97288.66;4985216;28;20558;-62
2022/08/25 00:51:51;;;;;;;13.43;12.23;;;;;;;15.99;100.00;97281.72;5022631;28;20765;-63
2022/08/25 00:54:22;;;;;;;12.77;11.77;;;;;;;15.84;100.00;97282.84;5022372;28;20231;-63
2022/08/25 00:56:51;;;;;;;13.40;12.20;;;;;;;15.97;100.00;97281.97;5022545;28;20200;-60
2022/08/25 00:59:19;;;;;;;14.00;12.90;;;;;;;16.00;100.00;97283.38;5018344;28;20470;-63
2022/08/25 01:01:48;;;;;;;13.67;12.50;;;;;;;15.84;100.00;97276.66;5024649;28;20690;-64
2022/08/25 01:04:16;;;;;;;12.80;11.70;;;;;;;15.89;100.00;97271.50;4971683;28;22397;-63
2022/08/25 01:06:45;;;;;;;13.53;12.33;;;;;;;16.04;100.00;97272.03;5020593;28;20231;-63
2022/08/25 01:09:14;;;;;;;13.67;12.57;;;;;;;16.07;100.00;97273.44;5020892;28;20226;-64
2022/08/25 01:11:45;;;;;;;13.07;11.77;;;;;;;15.86;100.00;97274.59;5017662;28;20303;-62
2022/08/25 01:14:15;;;;;;;14.20;13.10;;;;;;;15.91;100.00;97274.81;5025855;28;21021;-63
2022/08/25 01:16:43;;;;;;;13.03;11.93;;;;;;;15.87;100.00;97277.06;5020980;28;20570;-63
2022/08/25 01:19:14;;;;;;;13.67;12.53;;;;;;;15.88;100.00;97275.22;5023148;28;20336;-64
2022/08/25 01:21:47;;;;;;;13.30;12.13;;;;;;;15.85;100.00;97281.78;4974365;28;20294;-64
2022/08/25 01:24:23;;;;;;;12.87;11.87;;;;;;;15.85;100.00;97272.94;5023195;28;20281;-60
2022/08/25 01:26:51;;;;;;;13.53;12.43;;;;;;;15.83;100.00;97272.34;5021321;28;21409;-61
2022/08/25 01:29:24;;;;;;;13.63;12.50;;;;;;;15.75;100.00;97278.78;5018427;28;20236;-64
2022/08/25 01:31:56;;;;;;;14.20;12.80;;;;;;;15.72;100.00;97284.53;5024103;28;20582;-62
2022/08/25 01:34:25;;;;;;;15.30;14.00;;;;;;;15.77;100.00;97276.72;5024386;28;20292;-63
2022/08/25 01:36:55;;;;;;;14.93;13.43;;;;;;;15.80;100.00;97278.97;4976378;28;20791;-61
2022/08/25 01:39:24;;;;;;;14.43;13.13;;;;;;;15.77;100.00;97282.06;5023241;28;20485;-64
2022/08/25 01:42:08;;;;;;;13.93;12.53;;;;;;;15.70;100.00;97276.75;5023721;28;20214;-62
2022/08/25 01:44:39;;;;;;;14.60;13.40;;;;;;;15.68;100.00;97273.47;5026924;28;20262;-64
2022/08/25 01:47:08;;;;;;;14.63;13.43;;;;;;;15.65;100.00;97275.75;5021661;28;20298;-61
2022/08/25 01:49:36;;;;;;;15.07;13.77;;;;;;;15.62;100.00;97272.47;5027141;28;20782;-63
2022/08/25 01:52:11;;;;;;;13.90;12.80;;;;;;;15.67;100.00;97271.84;4978862;28;20204;-61
2022/08/25 01:54:39;;;;;;;14.50;13.10;;;;;;;15.71;100.00;97272.22;5027828;28;20284;-64
2022/08/25 01:57:09;;;;;;;14.57;13.30;;;;;;;15.63;100.00;97263.44;4989227;28;20682;-62
2022/08/25 01:59:37;;;;;;;14.07;12.97;;;;;;;15.52;100.00;97271.28;5021429;28;20234;-63
2022/08/25 02:02:05;;;;;;;15.13;13.73;;;;;;;15.45;100.00;97268.66;5024975;28;20921;-62
2022/08/25 02:04:34;;;;;;;14.63;13.33;;;;;;;15.58;100.00;97270.47;5028592;28;20221;-64
2022/08/25 02:07:04;;;;;;;14.23;12.93;;;;;;;15.47;100.00;97263.94;5025850;28;20293;-62
2022/08/25 02:09:34;;;;;;;15.43;14.00;;;;;;;15.51;100.00;97267.81;4977969;28;20318;-63
2022/08/25 02:12:03;;;;;;;14.83;13.53;;;;;;;15.37;100.00;97261.72;5024035;28;20238;-61
2022/08/25 02:14:31;;;;;;;16.23;14.83;;;;;;;15.29;100.00;97256.63;5030650;28;20370;-62
2022/08/25 02:17:00;;;;;;;15.63;13.67;;;;;;;15.28;100.00;97263.81;5026144;28;20274;-62
2022/08/25 02:19:29;;;;;;;13.93;12.70;;;;;;;15.36;100.00;97257.41;5026893;28;20908;-61
2022/08/25 02:21:58;;;;;;;16.23;14.83;;;;;;;15.37;100.00;97259.06;5027147;28;20233;-61
2022/08/25 02:24:26;;;;;;;15.27;13.87;;;;;;;15.30;100.00;97251.06;4977973;28;20679;-64
2022/08/25 02:26:56;;;;;;;15.20;13.70;;;;;;;15.24;100.00;97261.78;4953696;28;20641;-64
2022/08/25 02:29:25;;;;;;;15.03;13.53;;;;;;;15.27;100.00;97256.03;5023472;28;20332;-62
2022/08/25 02:31:53;;;;;;;15.63;14.13;;;;;;;15.39;100.00;97258.84;5025880;28;20235;-61
2022/08/25 02:34:22;;;;;;;15.73;14.47;;;;;;;15.35;100.00;97261.13;5025411;28;20644;-62
2022/08/25 02:36:50;;;;;;;14.43;13.13;;;;;;;15.33;100.00;97255.97;5027320;28;20208;-64
2022/08/25 02:39:18;;;;;;;14.70;13.40;;;;;;;15.32;100.00;97261.53;5028024;28;20721;-61
2022/08/25 02:41:46;;;;;;;14.57;13.17;;;;;;;15.34;100.00;97252.31;4978661;28;20297;-61
2022/08/25 02:44:16;;;;;;;14.87;13.67;;;;;;;15.31;100.00;97250.03;5023456;28;20207;-64
2022/08/25 02:46:44;;;;;;;15.67;14.27;;;;;;;15.34;100.00;97256.81;5024520;28;20778;-66
2022/08/25 02:49:12;;;;;;;15.80;14.27;;;;;;;15.30;100.00;97247.59;5027084;28;20228;-63
2022/08/25 02:51:41;;;;;;;16.50;14.90;;;;;;;15.40;100.00;97247.94;5025761;28;20463;-64
2022/08/25 02:54:09;;;;;;;16.30;14.80;;;;;;;15.45;100.00;97244.66;5023714;28;20300;-63
2022/08/25 02:56:38;;;;;;;15.70;14.20;;;;;;;15.42;100.00;97245.88;4971250;28;20219;-65
2022/08/25 02:59:07;;;;;;;16.13;14.70;;;;;;;15.36;100.00;97245.94;5020624;28;20305;-65
2022/08/25 03:01:36;;;;;;;16.07;14.57;;;;;;;15.21;100.00;97241.66;5025646;28;20662;-65
2022/08/25 03:04:06;;;;;;;16.87;15.07;;;;;;;15.30;100.00;97240.38;5028636;28;20199;-65
2022/08/25 03:06:34;;;;;;;16.33;14.63;;;;;;;15.28;100.00;97237.13;5022110;28;20682;-65
2022/08/25 03:09:03;;;;;;;16.00;14.57;;;;;;;15.36;100.00;97230.72;5025031;28;20680;-65
2022/08/25 03:11:31;;;;;;;15.73;14.23;;;;;;;15.29;100.00;97222.72;4971870;28;20792;-62
2022/08/25 03:13:59;;;;;;;15.33;13.83;;;;;;;15.24;100.00;97227.09;5029838;28;20235;-63
2022/08/25 03:16:27;;;;;;;14.53;13.27;;;;;;;15.21;100.00;97236.34;5022960;28;20253;-61
2022/08/25 03:18:57;;;;;;;15.63;14.23;;;;;;;15.23;100.00;97234.25;5025067;28;20227;-65
2022/08/25 03:21:28;;;;;;;16.63;15.23;;;;;;;15.09;100.00;97228.16;5020001;28;20200;-63
2022/08/25 03:23:56;;;;;;;15.47;13.97;;;;;;;14.99;100.00;97231.31;5030060;28;20234;-65
2022/08/25 03:29:10;;;;;;;15.93;14.53;;;;;;;15.02;100.00;97222.88;4973308;28;20219;-61
2022/08/25 03:31:39;;;;;;;16.10;14.73;;;;;;;14.94;100.00;97219.63;5021077;28;20412;-64
2022/08/25 03:34:08;;;;;;;16.07;14.67;;;;;;;14.95;100.00;97208.72;5026527;28;20957;-64
2022/08/25 03:36:37;;;;;;;14.53;13.20;;;;;;;15.00;100.00;97230.28;5022456;28;20828;-64
2022/08/25 03:39:07;;;;;;;15.77;14.47;;;;;;;15.05;100.00;97225.13;5025966;28;20285;-64
2022/08/25 03:41:35;;;;;;;15.40;14.03;;;;;;;15.03;100.00;97227.19;5019234;28;20719;-64
2022/08/25 03:44:05;;;;;;;15.67;14.00;;;;;;;15.05;100.00;97226.94;4973949;28;20302;-63
2022/08/25 03:46:36;;;;;;;15.13;13.70;;;;;;;15.04;100.00;97233.31;5021051;28;20234;-63
2022/08/25 03:49:06;;;;;;;17.03;15.63;;;;;;;15.08;100.00;97228.41;5025321;28;20269;-64
2022/08/25 03:51:39;;;;;;;16.27;14.60;;;;;;;15.10;100.00;97234.34;5023637;28;20200;-64
2022/08/25 03:54:09;;;;;;;16.87;15.17;;;;;;;15.07;100.00;97226.75;5024131;28;20204;-64
2022/08/25 03:56:37;;;;;;;16.03;14.53;;;;;;;15.09;100.00;97230.84;5024482;28;20200;-64
2022/08/25 03:59:07;;;;;;;15.27;13.90;;;;;;;15.08;100.00;97236.41;4970573;28;20227;-64
2022/08/25 04:01:36;;;;;;;16.30;14.83;;;;;;;15.08;100.00;97236.41;5022834;28;20446;-64
2022/08/25 04:04:05;;;;;;;15.33;13.97;;;;;;;15.07;100.00;97240.91;5025415;28;20254;-64
2022/08/25 04:06:35;;;;;;;16.20;14.60;;;;;;;15.00;100.00;97245.44;5026330;28;20228;-61
2022/08/25 04:09:03;;;;;;;17.53;15.70;;;;;;;14.99;100.00;97236.63;5025288;28;20308;-64
2022/08/25 04:11:31;;;;;;;16.77;15.07;;;;;;;15.02;100.00;97241.56;5023367;28;20352;-64
2022/08/25 04:14:01;;;;;;;16.70;14.97;;;;;;;14.94;100.00;97239.09;4973578;28;20251;-64
2022/08/25 04:16:31;;;;;;;15.80;14.40;;;;;;;14.99;100.00;97239.31;5020977;28;20208;-63
2022/08/25 04:19:01;;;;;;;17.00;15.47;;;;;;;15.01;100.00;97231.91;5027619;28;20779;-64
2022/08/25 04:21:29;;;;;;;17.20;15.50;;;;;;;15.00;100.00;97227.59;5019194;28;20217;-64
2022/08/25 04:23:59;;;;;;;18.70;16.47;;;;;;;14.97;100.00;97235.19;5027927;28;20227;-64
2022/08/25 04:26:31;;;;;;;17.00;15.40;;;;;;;15.00;100.00;97230.28;5024710;28;20232;-63
2022/08/25 04:29:01;;;;;;;16.30;14.83;;;;;;;14.99;100.00;97225.13;5027822;28;20267;-63
2022/08/25 04:31:30;;;;;;;15.87;14.57;;;;;;;15.02;100.00;97222.88;4967466;28;20541;-63
2022/08/25 04:33:59;;;;;;;16.50;15.07;;;;;;;15.01;100.00;97209.72;4961646;28;20555;-64
2022/08/25 04:36:28;;;;;;;16.60;15.10;;;;;;;15.03;100.00;97219.19;5021536;28;20260;-64
2022/08/25 04:38:56;;;;;;;18.60;16.80;;;;;;;15.00;100.00;97224.09;5021812;28;20519;-66
2022/08/25 04:41:27;;;;;;;17.43;15.80;;;;;;;14.99;100.00;97225.13;5025473;28;20200;-64
2022/08/25 04:43:56;;;;;;;17.23;15.53;;;;;;;15.07;100.00;97218.75;5023508;28;20882;-64
2022/08/25 04:46:27;;;;;;;17.87;16.10;;;;;;;15.11;100.00;97219.97;5026455;28;20546;-64
2022/08/25 04:48:56;;;;;;;19.03;17.03;;;;;;;15.18;100.00;97221.56;4967210;28;20327;-64
2022/08/25 04:51:28;;;;;;;17.27;15.77;;;;;;;15.25;100.00;97224.19;5025450;28;20245;-64
2022/08/25 04:53:59;;;;;;;19.03;17.13;;;;;;;15.29;100.00;97227.28;5023104;28;20278;-64
2022/08/25 04:56:29;;;;;;;18.10;16.47;;;;;;;15.32;100.00;97229.50;5023467;28;20319;-64
2022/08/25 04:58:57;;;;;;;18.63;16.90;;;;;;;15.32;100.00;97229.50;5019384;28;20374;-64
2022/08/25 05:01:26;;;;;;;18.83;17.13;;;;;;;15.38;100.00;97225.19;5024545;28;20231;-64
2022/08/25 05:03:56;;;;;;;19.67;17.90;;;;;;;15.39;100.00;97234.81;4975527;28;20473;-65
2022/08/25 05:06:24;;;;;;;19.27;17.33;;;;;;;15.37;100.00;97229.69;5021609;28;20208;-64
2022/08/25 05:08:53;;;;;;;18.83;17.07;;;;;;;15.43;100.00;97228.03;5019869;28;20606;-64
2022/08/25 05:11:21;;;;;;;16.80;15.20;;;;;;;15.43;100.00;97234.16;5021553;28;20212;-62
2022/08/25 05:13:53;;;;;;;18.70;16.83;;;;;;;15.46;100.00;97224.91;5019732;28;20778;-64
2022/08/25 05:16:23;;;;;;;18.03;16.53;;;;;;;15.45;100.00;97217.94;5030634;28;20998;-64
2022/08/25 05:18:52;;;;;;;18.70;16.80;;;;;;;15.54;100.00;97224.66;4965704;28;21135;-64
2022/08/25 05:21:22;;;;;;;18.40;16.53;;;;;;;15.62;100.00;97227.06;5022090;28;20729;-62
2022/08/25 05:23:55;;;;;;;17.87;15.83;;;;;;;15.76;100.00;97224.31;5022510;28;20450;-62
2022/08/25 05:26:25;;;;;;;18.33;16.67;;;;;;;15.82;100.00;97220.78;5027195;28;20583;-64
2022/08/25 05:28:55;;;;;;;17.70;16.10;;;;;;;15.84;100.00;97215.22;5027754;28;20560;-64
2022/08/25 05:31:24;;;;;;;17.83;16.27;;;;;;;15.91;100.00;97218.72;5031820;28;20737;-64
2022/08/25 05:33:54;;;;;;;18.13;16.40;;;;;;;15.94;100.00;97223.63;5024159;28;20211;-64
2022/08/25 05:36:23;;;;;;;17.90;16.20;;;;;;;15.98;100.00;97227.47;4978314;28;20677;-65
2022/08/25 05:38:51;;;;;;;17.40;15.60;;;;;;;16.08;100.00;97220.81;5020574;28;20302;-64
2022/08/25 05:41:21;;;;;;;18.17;16.50;;;;;;;16.19;100.00;97220.94;5032830;28;21125;-63
2022/08/25 05:43:50;;;;;;;17.00;15.27;;;;;;;16.37;100.00;97219.31;5023306;28;20508;-63
2022/08/25 05:46:21;;;;;;;17.10;15.60;;;;;;;16.41;100.00;97222.38;5030278;28;20651;-64
2022/08/25 05:48:50;;;;;;;17.60;15.87;;;;;;;16.54;100.00;97224.13;5024456;28;20462;-63
2022/08/25 05:51:18;;;;;;;17.50;15.77;;;;;;;16.80;100.00;97220.34;4975325;28;20356;-64
2022/08/25 05:53:48;;;;;;;17.10;15.47;;;;;;;16.88;100.00;97203.97;5022109;28;20328;-62
2022/08/25 05:56:17;;;;;;;16.90;15.50;;;;;;;17.09;100.00;97209.09;5028611;28;20200;-62
2022/08/25 05:58:45;;;;;;;17.13;15.43;;;;;;;17.15;100.00;97206.34;5023515;28;20227;-63
2022/08/25 06:04:12;;;;;;;16.90;15.30;;;;;;;17.48;100.00;97194.38;5025395;28;20223;-64
2022/08/25 06:06:40;;;;;;;17.07;15.40;;;;;;;17.64;100.00;97192.91;4980670;28;20259;-62
2022/08/25 06:09:09;;;;;;;17.07;15.47;;;;;;;17.78;100.00;97190.81;5022255;28;20224;-64
2022/08/25 06:11:38;;;;;;;15.97;14.60;;;;;;;17.93;100.00;97192.25;5025546;28;20239;-61
2022/08/25 06:14:07;;;;;;;15.23;13.87;;;;;;;18.10;100.00;97189.75;5008692;28;20698;-64
2022/08/25 06:16:37;;;;;;;15.03;13.73;;;;;;;18.29;100.00;97181.56;5025034;28;20492;-62
2022/08/25 06:19:06;;;;;;;15.80;14.40;;;;;;;18.48;100.00;97185.78;5025330;28;20253;-64
2022/08/25 06:21:36;;;;;;;15.03;13.77;;;;;;;18.58;100.00;97181.66;4973315;28;20232;-65
2022/08/25 06:24:05;;;;;;;15.97;14.53;;;;;;;18.65;100.00;97185.03;5025233;28;20196;-64
2022/08/25 06:26:33;;;;;;;14.77;13.30;;;;;;;18.85;100.00;97165.06;5018507;28;20208;-64
2022/08/25 06:29:02;;;;;;;15.73;14.23;;;;;;;19.16;100.00;97171.06;5028989;28;20246;-64
2022/08/25 06:31:30;;;;;;;14.53;13.03;;;;;;;19.20;100.00;97173.00;5024934;28;20464;-64
2022/08/25 06:34:00;;;;;;;13.63;12.37;;;;;;;19.37;100.00;97169.56;5030281;28;20768;-64
2022/08/25 06:36:28;;;;;;;15.30;13.20;;;;;;;19.46;100.00;97167.28;5022104;28;20368;-64
2022/08/25 06:38:56;;;;;;;13.87;12.77;;;;;;;19.58;100.00;97176.09;4980484;28;20323;-64
2022/08/25 06:41:24;;;;;;;13.57;12.37;;;;;;;19.84;100.00;97181.09;4967067;28;20692;-64
2022/08/25 06:44:04;;;;;;;13.33;12.23;;;;;;;19.99;100.00;97175.19;5026678;28;20269;-64
2022/08/25 06:46:33;;;;;;;15.20;13.53;;;;;;;20.08;100.00;97174.53;5024708;28;20724;-61
2022/08/25 06:49:06;;;;;;;14.00;12.60;;;;;;;20.34;100.00;97168.72;5022662;28;20250;-64
2022/08/25 06:51:35;;;;;;;13.97;12.87;;;;;;;20.50;100.00;97169.72;5026536;28;20628;-61
2022/08/25 06:54:05;;;;;;;13.53;12.23;;;;;;;20.71;100.00;97167.28;5026522;28;20909;-64
2022/08/25 06:56:33;;;;;;;13.90;12.80;;;;;;;20.71;100.00;97175.38;4981451;28;20687;-61
2022/08/25 06:59:02;;;;;;;13.70;12.50;;;;;;;20.96;100.00;97167.66;5022600;28;20243;-64
2022/08/25 07:01:30;;;;;;;14.27;13.03;;;;;;;21.21;100.00;97168.16;5026547;28;20318;-64
2022/08/25 07:04:00;;;;;;;14.30;13.10;;;;;;;21.30;100.00;97165.84;5022221;28;20236;-65
2022/08/25 07:06:34;;;;;;;13.13;12.07;;;;;;;21.45;100.00;97171.38;5025165;28;20988;-64
2022/08/25 07:09:03;;;;;;;12.43;11.53;;;;;;;21.62;100.00;97165.06;5026303;28;20223;-64
2022/08/25 07:11:33;;;;;;;13.57;12.37;;;;;;;21.77;100.00;97175.19;4979650;28;20342;-62
2022/08/25 07:14:02;;;;;;;13.97;12.87;;;;;;;21.61;100.00;97166.94;5020637;28;20462;-65
2022/08/25 07:16:31;;;;;;;13.20;11.90;;;;;;;21.38;100.00;97163.50;5024750;28;20212;-64
2022/08/25 07:19:00;;;;;;;12.13;11.23;;;;;;;21.65;100.00;97162.69;5021623;28;20223;-65
2022/08/25 07:21:32;;;;;;;12.40;11.30;;;;;;;21.79;100.00;97164.97;5019948;28;20671;-62
2022/08/25 07:24:05;;;;;;;13.13;12.03;;;;;;;21.97;100.00;97171.84;5026105;28;20297;-64
2022/08/25 07:26:36;;;;;;;13.37;11.97;;;;;;;22.01;100.00;97159.50;5023243;28;20208;-62
2022/08/25 07:29:08;;;;;;;13.03;11.57;;;;;;;22.04;100.00;97163.53;5001750;28;20785;-64
2022/08/25 07:31:36;;;;;;;12.90;11.80;;;;;;;22.00;100.00;97163.25;5024899;28;20203;-61
2022/08/25 07:36:54;;;;;;;12.13;11.07;;;;;;;22.20;100.00;97173.38;5018766;28;20270;-64
2022/08/25 07:39:23;;;;;;;10.93;10.13;;;;;;;22.28;100.00;97172.06;5028006;28;20586;-64
2022/08/25 07:41:51;;;;;;;13.80;12.47;;;;;;;22.13;100.00;97167.38;4972453;28;21303;-61
2022/08/25 07:44:20;;;;;;;12.27;11.20;;;;;;;22.10;100.00;97159.78;5023420;28;20745;-64
2022/08/25 07:46:49;;;;;;;12.47;11.43;;;;;;;22.23;100.00;97161.22;5023581;28;20214;-61
2022/08/25 07:49:18;;;;;;;14.83;13.43;;;;;;;21.88;100.00;97159.91;5024990;28;20238;-63
2022/08/25 07:51:50;;;;;;;13.03;12.13;;;;;;;21.73;100.00;97153.34;5019755;28;20484;-63
2022/08/25 07:54:35;;;;;;;14.30;13.10;;;;;;;21.65;100.00;97151.91;5026935;28;20204;-63
2022/08/25 07:57:06;;;;;;;12.70;11.57;;;;;;;21.53;100.00;97146.66;5024387;28;20518;-65
2022/08/25 07:59:35;;;;;;;13.10;11.80;;;;;;;21.47;100.00;97139.59;4977611;28;20228;-62
2022/08/25 08:02:09;;;;;;;13.97;12.67;;;;;;;21.57;100.00;97149.66;5020336;28;20475;-63
2022/08/25 08:04:48;;;;;;;13.10;11.90;;;;;;;21.37;100.00;97155.69;5017036;28;20199;-61
2022/08/25 08:07:18;;;;;;;14.03;12.73;;;;;;;21.19;100.00;97154.94;5026988;28;20206;-63
2022/08/25 08:09:48;;;;;;;14.40;13.20;;;;;;;21.15;100.00;97159.22;5016801;28;20664;-58
2022/08/25 08:12:36;;;;;;;15.27;13.90;;;;;;;20.94;100.00;97152.78;5020653;28;21679;-60
2022/08/25 08:15:06;;;;;;;14.30;13.10;;;;;;;21.14;100.00;97164.88;4996410;28;20328;-63
2022/08/25 08:17:37;;;;;;;16.30;14.53;;;;;;;21.24;100.00;97162.28;5021181;28;20711;-61
2022/08/25 08:20:07;;;;;;;14.90;13.57;;;;;;;21.31;100.00;97168.28;5022781;28;20265;-63
2022/08/25 08:22:36;;;;;;;14.97;13.67;;;;;;;21.35;100.00;97169.38;5029092;28;20262;-61
2022/08/25 08:25:07;;;;;;;14.33;12.93;;;;;;;21.27;100.00;97171.75;5024724;28;20527;-63
2022/08/25 08:27:41;;;;;;;13.93;12.80;;;;;;;21.27;100.00;97169.06;5024786;28;20203;-59
2022/08/25 08:30:11;;;;;;;14.07;12.87;;;;;;;21.51;100.00;97170.34;4972314;28;20251;-62
2022/08/25 08:32:39;;;;;;;13.47;12.23;;;;;;;21.79;100.00;97171.19;5018220;28;20207;-60
2022/08/25 08:35:27;;;;;;;12.83;11.73;;;;;;;22.04;100.00;97171.63;5019708;28;20545;-63
2022/08/25 08:37:55;;;;;;;13.23;11.93;;;;;;;22.16;100.00;97164.19;5021083;28;21042;-63
2022/08/25 08:40:25;;;;;;;13.17;12.03;;;;;;;22.03;100.00;97167.31;5024839;28;20203;-63
2022/08/25 08:43:04;;;;;;;13.73;12.43;;;;;;;21.94;100.00;97169.66;5017235;28;20208;-63
2022/08/25 08:45:35;;;;;;;14.10;12.80;;;;;;;22.14;100.00;97169.00;4975279;28;20222;-60
2022/08/25 08:48:34;;;;;;;14.17;12.87;;;;;;;22.44;100.00;97167.56;4967099;28;20603;-60
2022/08/25 08:51:16;;;;;;;14.77;13.47;;;;;;;22.26;100.00;97161.53;5017004;28;20228;-61
2022/08/25 08:53:48;;;;;;;13.27;12.17;;;;;;;22.09;100.00;97160.88;5025622;28;20286;-62
2022/08/25 08:56:21;;;;;;;13.77;12.43;;;;;;;21.92;100.00;97161.00;5018292;28;20218;-61
2022/08/25 08:58:53;;;;;;;14.60;13.37;;;;;;;21.85;100.00;97160.44;5026073;28;20285;-63
2022/08/25 09:01:25;;;;;;;13.67;12.57;;;;;;;21.97;100.00;97159.19;5017555;28;20309;-63
2022/08/25 09:03:57;;;;;;;14.43;13.23;;;;;;;22.09;100.00;97160.88;4973885;28;20231;-61
2022/08/25 09:06:29;;;;;;;13.63;12.43;;;;;;;22.27;100.00;97155.06;5019764;28;20727;-61
2022/08/25 09:08:59;;;;;;;13.40;12.20;;;;;;;22.47;100.00;97163.56;5021138;28;20652;-60
2022/08/25 09:11:39;;;;;;;13.10;12.00;;;;;;;22.73;100.00;97159.09;5020273;28;20208;-63
2022/08/25 09:14:14;;;;;;;13.33;12.07;;;;;;;22.78;100.00;97159.13;5022759;28;20294;-60
2022/08/25 09:16:57;;;;;;;13.77;12.47;;;;;;;22.94;100.00;97161.91;5025468;28;20717;-63
2022/08/25 09:19:48;;;;;;;12.73;11.73;;;;;;;23.09;100.00;97151.13;4973449;28;20223;-63
2022/08/25 09:22:27;;;;;;;12.30;11.30;;;;;;;23.12;100.00;97142.50;5017988;28;20330;-62
2022/08/25 09:25:07;;;;;;;12.70;11.70;;;;;;;23.47;100.00;97139.34;5019173;28;20261;-59
2022/08/25 09:27:41;;;;;;;12.87;11.57;;;;;;;24.10;100.00;97141.78;5021584;28;20196;-64
2022/08/25 09:30:13;;;;;;;13.73;12.50;;;;;;;24.39;100.00;97132.25;5023201;28;20647;-60
2022/08/25 09:32:43;;;;;;;12.63;11.63;;;;;;;24.29;100.00;97119.56;5025108;28;20211;-61
2022/08/25 09:35:21;;;;;;;12.70;11.70;;;;;;;24.70;100.00;97126.72;4972658;28;20447;-63
2022/08/25 09:37:57;;;;;;;12.73;11.73;;;;;;;25.10;100.00;97124.94;5022774;28;20856;-63
2022/08/25 09:40:26;;;;;;;12.80;11.50;;;;;;;25.24;100.00;97125.13;5017653;28;20200;-63
2022/08/25 09:42:57;;;;;;;12.83;11.67;;;;;;;25.73;100.00;97114.47;5017345;28;20203;-63
2022/08/25 09:45:36;;;;;;;12.57;11.57;;;;;;;25.99;100.00;97106.94;5019962;28;20472;-63
2022/08/25 09:48:20;;;;;;;11.93;11.03;;;;;;;25.83;100.00;97108.97;5016730;28;20235;-60
2022/08/25 09:50:50;;;;;;;11.20;10.30;;;;;;;25.54;100.00;97103.50;4976523;28;20579;-63
2022/08/25 09:53:18;;;;;;;11.97;11.07;;;;;;;25.76;100.00;97104.97;5015184;28;20352;-62
2022/08/25 09:55:56;;;;;;;11.73;10.83;;;;;;;25.88;100.00;97101.88;5023673;28;20215;-62
2022/08/25 09:58:28;;;;;;;9.90;9.10;;;;;;;25.34;100.00;97102.56;5024309;28;20435;-63
2022/08/25 10:01:08;;;;;;;10.97;10.03;;;;;;;25.58;100.00;97105.38;5025079;28;20212;-60
2022/08/25 10:03:36;;;;;;;10.20;9.40;;;;;;;25.60;100.00;97086.13;5019847;28;20674;-60
2022/08/25 10:06:10;;;;;;;9.40;8.57;;;;;;;25.77;100.00;97090.31;5002426;28;20423;-60
2022/08/25 10:08:54;;;;;;;9.73;8.83;;;;;;;25.97;100.00;97092.84;5019162;28;20262;-64
2022/08/25 10:11:37;;;;;;;10.10;9.20;;;;;;;25.83;100.00;97092.69;5022372;28;20320;-63
2022/08/25 10:14:16;;;;;;;10.47;9.57;;;;;;;25.86;100.00;97091.28;5019422;28;20199;-60
2022/08/25 10:16:45;;;;;;;9.60;8.80;;;;;;;25.82;100.00;97085.66;5025902;28;20215;-63
2022/08/25 10:19:24;;;;;;;9.97;8.60;;;;;;;25.95;100.00;97089.59;5024791;28;20613;-60
2022/08/25 10:22:07;;;;;;;8.83;8.13;;;;;;;25.84;100.00;97088.88;4969477;28;20207;-61
2022/08/25 10:24:38;;;;;;;9.77;9.07;;;;;;;25.92;100.00;97089.34;4999280;28;20219;-64
2022/08/25 10:27:19;;;;;;;9.20;8.40;;;;;;;25.71;100.00;97075.97;4997494;28;20208;-60
2022/08/25 10:30:06;;;;;;;9.63;8.60;;;;;;;25.52;100.00;97082.09;5022810;28;20631;-63
2022/08/25 10:32:48;;;;;;;9.10;8.40;;;;;;;25.56;100.00;97076.91;5005255;28;20446;-63
2022/08/25 10:35:20;;;;;;;9.00;8.30;;;;;;;25.59;100.00;97081.78;5027267;28;20737;-59
2022/08/25 10:38:01;;;;;;;8.60;7.63;;;;;;;25.56;100.00;97075.00;4977611;28;20248;-62
2022/08/25 10:40:37;;;;;;;8.20;7.53;;;;;;;25.54;98.20;97070.97;5020079;28;20773;-63
2022/08/25 10:43:07;;;;;;;8.63;8.03;;;;;;;25.81;99.28;97077.78;5011214;28;20768;-62
2022/08/25 10:45:44;;;;;;;8.83;8.03;;;;;;;25.81;96.66;97062.31;5026262;28;20588;-64
2022/08/25 10:48:35;;;;;;;7.90;7.37;;;;;;;26.27;92.93;97057.53;5008617;28;20199;-59
2022/08/25 10:51:10;;;;;;;8.53;7.70;;;;;;;26.23;98.08;97051.84;5023460;28;20232;-63
2022/08/25 10:53:53;;;;;;;8.23;7.43;;;;;;;26.26;92.11;97051.28;4955916;28;20690;-61
2022/08/25 10:56:25;;;;;;;9.07;7.47;;;;;;;26.52;86.69;97053.69;4967403;28;20219;-61
2022/08/25 10:59:16;;;;;;;10.30;7.37;;;;;;;26.38;83.55;97047.34;5023612;28;20227;-63
2022/08/25 11:02:01;;;;;;;8.13;7.53;;;;;;;26.33;88.89;97050.09;5017394;28;20201;-63
2022/08/25 11:04:32;;;;;;;11.00;6.90;;;;;;;26.46;90.53;97054.03;5020909;28;21100;-59
2022/08/25 11:07:07;;;;;;;8.03;7.30;;;;;;;26.48;90.36;97047.22;5018501;28;20672;-60
2022/08/25 11:09:41;;;;;;;8.40;7.77;;;;;;;27.24;88.16;97035.56;5025053;28;20679;-63
2022/08/25 11:12:13;;;;;;;9.00;8.13;;;;;;;27.54;80.46;97033.47;4975296;28;20283;-61
2022/08/25 11:14:48;;;;;;;8.00;7.40;;;;;;;27.52;83.31;97040.34;5019658;28;20291;-64
2022/08/25 11:17:22;;;;;;;7.80;7.30;;;;;;;27.64;84.40;97031.66;5025077;28;20389;-65
2022/08/25 11:19:53;;;;;;;8.40;7.70;;;;;;;28.06;79.06;97026.28;5020615;28;20234;-61
2022/08/25 11:22:26;;;;;;;8.33;7.63;;;;;;;28.30;72.89;97029.66;5025246;28;20428;-65
2022/08/25 11:25:03;;;;;;;8.40;7.47;;;;;;;28.46;69.24;97026.59;5017962;28;20278;-61
2022/08/25 11:27:36;;;;;;;12.13;6.80;;;;;;;27.82;71.53;97035.44;4981378;28;20419;-65
2022/08/25 11:30:08;;;;;;;10.23;6.83;;;;;;;27.70;64.49;97031.28;5021631;28;20305;-66
2022/08/25 11:32:39;;;;;;;8.53;7.63;;;;;;;28.40;62.24;97027.81;5027568;28;20207;-66
2022/08/25 11:35:11;;;;;;;8.67;7.27;;;;;;;28.95;63.68;97026.09;5022175;28;20593;-63
2022/08/25 11:37:45;;;;;;;7.60;6.63;;;;;;;28.66;69.07;97025.34;5025882;28;20207;-64
2022/08/25 11:40:29;;;;;;;9.87;7.47;;;;;;;29.36;61.35;97024.31;5023849;28;20223;-66